EGQK

RAF Kinloss Airport

Kinloss, United Kingdom
METAR EGQK 131050Z AUTO 14011KT 9999 BKN032/// 06/00 Q1017
Observed Flight Rules
Dec-13 @ 10:50 UTC (49 minutes ago) Visual Flight Rules
Wind Visibility Clouds
140° at 11 knots 10,000+ meters
  • Broken at 3,200' AGL
Temperatures Readings
Current 6°C / 43°F
Dewpoint 0°C / 32°F
Humidity 66%
Altimeter 30.03" Hg
Pressure 1017 hPa
Elevation 7
METAR EGQK 131050Z AUTO 14011KT 9999 BKN032/// 06/00 Q1017
Observed Flight Rules
Dec-13 @ 10:50 UTC
(49 minutes ago)
VFR
Wind Visibility
140° at 11 knots 10,000+ meters
Clouds
  • Broken at 3,200' AGL
Temperature Dewpoint
6°C / 43°F 0°C / 32°F
Humidity Altimeter Pressure
66% 30.03" Hg 1017 hPa